createdAt,value
2016-10-01T00:00:05.415Z,1002.17
2016-10-01T00:01:05.391Z,1002.12
2016-10-01T00:02:05.368Z,1002.12
2016-10-01T00:03:05.341Z,1002.11
2016-10-01T00:04:05.321Z,1002.08
2016-10-01T00:05:05.294Z,1002.05
2016-10-01T00:06:05.274Z,1002.02
2016-10-01T00:07:05.249Z,1001.98
2016-10-01T00:08:05.226Z,1001.98
2016-10-01T00:09:05.202Z,1001.92
2016-10-01T00:10:05.180Z,1001.93
2016-10-01T00:11:05.153Z,1001.97
2016-10-01T00:12:05.130Z,1001.97
2016-10-01T00:13:05.106Z,1001.91
2016-10-01T00:14:05.082Z,1001.93
2016-10-01T00:15:05.064Z,1001.96
2016-10-01T00:16:05.038Z,1001.98
2016-10-01T00:17:05.014Z,1002.03
2016-10-01T00:18:04.990Z,1002.02
2016-10-01T00:19:04.966Z,1002
2016-10-01T00:20:04.941Z,1001.98
2016-10-01T00:21:04.919Z,1001.96
2016-10-01T00:22:04.896Z,1001.96
2016-10-01T00:23:04.871Z,1001.94
2016-10-01T00:24:04.847Z,1001.93
2016-10-01T00:25:04.823Z,1001.89
2016-10-01T00:26:04.802Z,1001.92
2016-10-01T00:27:04.777Z,1001.92
2016-10-01T00:28:04.753Z,1001.87
2016-10-01T00:29:04.731Z,1001.85
2016-10-01T00:30:04.708Z,1001.8
2016-10-01T00:31:04.682Z,1001.83
2016-10-01T00:32:04.661Z,1001.83
2016-10-01T00:33:04.636Z,1001.81
2016-10-01T00:34:04.611Z,1001.82
2016-10-01T00:35:04.587Z,1001.79
2016-10-01T00:36:04.563Z,1001.78
2016-10-01T00:37:04.540Z,1001.79
2016-10-01T00:38:04.519Z,1001.82
2016-10-01T00:39:04.493Z,1001.81
2016-10-01T00:40:04.470Z,1001.82
2016-10-01T00:41:04.448Z,1001.83
2016-10-01T00:42:04.423Z,1001.83
2016-10-01T00:43:04.401Z,1001.82
2016-10-01T00:44:04.375Z,1001.81
2016-10-01T00:45:04.354Z,1001.8
2016-10-01T00:46:04.328Z,1001.79
2016-10-01T00:47:04.306Z,1001.75
2016-10-01T00:48:04.283Z,1001.79
2016-10-01T00:49:04.257Z,1001.77
2016-10-01T00:50:04.233Z,1001.77
2016-10-01T00:51:04.257Z,1001.72
2016-10-01T00:52:04.186Z,1001.73
2016-10-01T00:53:04.163Z,1001.67
2016-10-01T00:54:04.141Z,1001.66
2016-10-01T00:55:04.116Z,1001.62
2016-10-01T00:56:04.341Z,1001.63
2016-10-01T00:57:04.069Z,1001.63
2016-10-01T00:58:04.046Z,1001.66
2016-10-01T00:59:04.019Z,1001.64
2016-10-01T01:00:03.995Z,1001.61
2016-10-01T01:01:03.972Z,1001.61
2016-10-01T01:02:03.950Z,1001.65
2016-10-01T01:03:03.926Z,1001.62
2016-10-01T01:04:03.902Z,1001.61
2016-10-01T01:05:03.879Z,1001.59
2016-10-01T01:06:03.853Z,1001.57
2016-10-01T01:07:03.830Z,1001.56
2016-10-01T01:08:03.807Z,1001.49
2016-10-01T01:09:03.781Z,1001.48
2016-10-01T01:10:03.758Z,1001.43
2016-10-01T01:11:03.735Z,1001.42
2016-10-01T01:12:03.713Z,1001.41
2016-10-01T01:13:03.687Z,1001.43
2016-10-01T01:14:03.662Z,1001.43
2016-10-01T01:15:03.639Z,1001.43
2016-10-01T01:16:03.618Z,1001.45
2016-10-01T01:17:03.592Z,1001.46
2016-10-01T01:18:03.568Z,1001.42
2016-10-01T01:19:03.545Z,1001.43
2016-10-01T01:20:03.523Z,1001.45
2016-10-01T01:21:03.498Z,1001.39
2016-10-01T01:22:03.476Z,1001.39
2016-10-01T01:23:03.452Z,1001.37
2016-10-01T01:24:03.427Z,1001.35
2016-10-01T01:25:03.404Z,1001.31
2016-10-01T01:26:03.378Z,1001.29
2016-10-01T01:27:03.354Z,1001.24
2016-10-01T01:28:03.329Z,1001.22
2016-10-01T01:29:03.309Z,1001.22
2016-10-01T01:30:03.285Z,1001.22
2016-10-01T01:31:03.259Z,1001.26
2016-10-01T01:32:03.236Z,1001.29
2016-10-01T01:33:03.211Z,1001.3
2016-10-01T01:34:03.390Z,1001.27
2016-10-01T01:35:03.163Z,1001.27
2016-10-01T01:36:03.139Z,1001.2
2016-10-01T01:37:03.118Z,1001.19
2016-10-01T01:38:03.094Z,1001.17
2016-10-01T01:39:03.070Z,1001.19
2016-10-01T01:40:03.046Z,1001.19
2016-10-01T01:41:03.020Z,1001.22
2016-10-01T01:42:02.997Z,1001.18
2016-10-01T01:43:02.972Z,1001.19
2016-10-01T01:44:02.948Z,1001.24
2016-10-01T01:45:02.932Z,1001.22
2016-10-01T01:46:02.900Z,1001.22
2016-10-01T01:47:02.877Z,1001.2
2016-10-01T01:48:02.853Z,1001.2
2016-10-01T01:49:02.829Z,1001.18
2016-10-01T01:50:02.804Z,1001.2
2016-10-01T01:51:02.780Z,1001.2
2016-10-01T01:52:02.759Z,1001.23
2016-10-01T01:53:02.732Z,1001.18
2016-10-01T01:54:02.711Z,1001.21
2016-10-01T01:55:02.685Z,1001.18
2016-10-01T01:56:02.664Z,1001.15
2016-10-01T01:57:02.638Z,1001.13
2016-10-01T01:58:02.813Z,1001.11
2016-10-01T01:59:02.589Z,1001.07
2016-10-01T02:00:02.565Z,1001.03
2016-10-01T02:01:02.543Z,1000.93
2016-10-01T02:02:02.520Z,1000.91
2016-10-01T02:03:02.493Z,1000.9
2016-10-01T02:04:02.472Z,1000.86
2016-10-01T02:05:02.447Z,1000.76
2016-10-01T02:06:02.424Z,1000.74
2016-10-01T02:07:02.400Z,1000.73
2016-10-01T02:08:02.376Z,1000.73
2016-10-01T02:09:02.351Z,1000.73
2016-10-01T02:10:02.329Z,1000.71
2016-10-01T02:11:02.304Z,1000.7
2016-10-01T02:12:02.281Z,1000.7
2016-10-01T02:13:02.257Z,1000.7
2016-10-01T02:14:02.231Z,1000.69
2016-10-01T02:15:02.207Z,1000.67
2016-10-01T02:16:02.185Z,1000.65
2016-10-01T02:17:02.161Z,1000.64
2016-10-01T02:18:02.138Z,1000.64
2016-10-01T02:19:02.111Z,1000.6
2016-10-01T02:20:02.087Z,1000.59
2016-10-01T02:21:02.063Z,1000.56
2016-10-01T02:22:02.039Z,1000.59
2016-10-01T02:23:02.015Z,1000.6
2016-10-01T02:24:01.994Z,1000.64
2016-10-01T02:25:01.970Z,1000.62
2016-10-01T02:26:01.944Z,1000.61
2016-10-01T02:27:01.920Z,1000.61
2016-10-01T02:28:01.899Z,1000.63
2016-10-01T02:29:01.874Z,1000.6
2016-10-01T02:30:01.850Z,1000.61
2016-10-01T02:31:01.825Z,1000.56
2016-10-01T02:32:01.801Z,1000.56
2016-10-01T02:33:01.776Z,1000.55
2016-10-01T02:34:01.755Z,1000.55
2016-10-01T02:35:01.728Z,1000.55
2016-10-01T02:36:01.705Z,1000.53
2016-10-01T02:37:01.682Z,1000.57
2016-10-01T02:38:01.659Z,1000.59
2016-10-01T02:39:01.633Z,1000.62
2016-10-01T02:40:01.610Z,1000.6
2016-10-01T02:41:01.586Z,1000.59
2016-10-01T02:42:01.563Z,1000.57
2016-10-01T02:43:01.539Z,1000.6
2016-10-01T02:44:01.513Z,1000.57
2016-10-01T02:45:01.489Z,1000.56
2016-10-01T02:46:01.466Z,1000.58
2016-10-01T02:47:01.444Z,1000.57
2016-10-01T02:48:01.418Z,1000.54
2016-10-01T02:49:01.393Z,1000.47
2016-10-01T02:50:01.369Z,1000.46
2016-10-01T02:51:01.348Z,1000.42
2016-10-01T02:52:01.323Z,1000.4
2016-10-01T02:53:01.299Z,1000.46
2016-10-01T02:54:01.275Z,1000.42
2016-10-01T02:55:01.250Z,1000.47
2016-10-01T02:56:01.227Z,1000.46
2016-10-01T02:57:01.204Z,1000.43
2016-10-01T02:58:01.182Z,1000.46
2016-10-01T02:59:01.157Z,1000.45
2016-10-01T03:00:01.133Z,1000.44
2016-10-01T03:01:01.109Z,1000.42
2016-10-01T03:02:01.083Z,1000.42
2016-10-01T03:03:01.061Z,1000.36
2016-10-01T03:04:01.038Z,1000.3
2016-10-01T03:05:01.012Z,1000.26
2016-10-01T03:06:00.987Z,1000.22
2016-10-01T03:07:00.963Z,1000.18
2016-10-01T03:08:00.941Z,1000.19
2016-10-01T03:09:00.918Z,1000.22
2016-10-01T03:10:00.892Z,1000.25
2016-10-01T03:11:00.868Z,1000.25
2016-10-01T03:12:00.845Z,1000.26
2016-10-01T03:13:00.821Z,1000.26
2016-10-01T03:14:00.797Z,1000.27
2016-10-01T03:15:00.775Z,1000.27
2016-10-01T03:16:00.749Z,1000.24
2016-10-01T03:17:00.725Z,1000.19
2016-10-01T03:18:00.703Z,1000.14
2016-10-01T03:19:00.678Z,1000.15
2016-10-01T03:20:00.653Z,1000.08
2016-10-01T03:21:00.629Z,1000.07
2016-10-01T03:22:00.605Z,1000.02
2016-10-01T03:23:00.582Z,1000.03
2016-10-01T03:24:00.557Z,1000.03
2016-10-01T03:25:00.533Z,1000.02
2016-10-01T03:26:00.510Z,1000.04
2016-10-01T03:27:00.485Z,1000.06
2016-10-01T03:28:00.463Z,1000.08
2016-10-01T03:29:00.437Z,1000.11
2016-10-01T03:30:00.413Z,1000.12
2016-10-01T03:31:00.391Z,1000.15
2016-10-01T03:32:00.366Z,1000.14
2016-10-01T03:33:00.340Z,1000.09
2016-10-01T03:34:00.321Z,1000.14
2016-10-01T03:35:00.292Z,1000.11
2016-10-01T03:36:00.269Z,1000.12
2016-10-01T03:37:00.245Z,1000.09
2016-10-01T03:38:00.223Z,1000.08
2016-10-01T03:39:00.199Z,1000.04
2016-10-01T03:40:00.193Z,1000.04
2016-10-01T03:41:00.149Z,1000
2016-10-01T03:42:00.125Z,1000.04
2016-10-01T03:43:00.102Z,1000.02
2016-10-01T03:44:00.077Z,1000.01
2016-10-01T03:45:00.052Z,999.99
2016-10-01T03:46:00.028Z,999.95
2016-10-01T03:47:00.003Z,999.98
2016-10-01T03:47:59.980Z,999.97
2016-10-01T03:48:59.955Z,999.97
2016-10-01T03:49:59.932Z,999.93
2016-10-01T03:50:59.909Z,999.95
2016-10-01T03:51:59.886Z,999.97
2016-10-01T03:52:59.860Z,999.93
2016-10-01T03:53:59.835Z,999.93
2016-10-01T03:54:59.811Z,999.89
2016-10-01T03:55:59.788Z,999.85
2016-10-01T03:56:59.762Z,999.82
2016-10-01T03:57:59.739Z,999.83
2016-10-01T03:58:59.715Z,999.84
2016-10-01T03:59:59.694Z,999.88
2016-10-01T04:00:59.669Z,999.89
2016-10-01T04:01:59.643Z,999.92
2016-10-01T04:02:59.621Z,1000
2016-10-01T04:03:59.596Z,1000.03
2016-10-01T04:04:59.572Z,1000.07
2016-10-01T04:05:59.547Z,1000.02
2016-10-01T04:06:59.522Z,1000.02
2016-10-01T04:07:59.501Z,1000.06
2016-10-01T04:08:59.476Z,1000.04
2016-10-01T04:09:59.451Z,1000
2016-10-01T04:10:59.427Z,999.99
2016-10-01T04:11:59.402Z,999.96
2016-10-01T04:12:59.378Z,999.92
2016-10-01T04:13:59.355Z,999.9
2016-10-01T04:14:59.333Z,999.89
2016-10-01T04:15:59.306Z,999.89
2016-10-01T04:16:59.285Z,999.89
2016-10-01T04:17:59.259Z,999.88
2016-10-01T04:18:59.234Z,999.87
2016-10-01T04:19:59.210Z,999.82
2016-10-01T04:20:59.187Z,999.86
2016-10-01T04:21:59.163Z,999.83
2016-10-01T04:22:59.138Z,999.78
2016-10-01T04:23:59.114Z,999.82
2016-10-01T04:24:59.094Z,999.76
2016-10-01T04:25:59.074Z,999.74
2016-10-01T04:26:59.045Z,999.67
2016-10-01T04:27:59.021Z,999.65
2016-10-01T04:28:59.001Z,999.63
2016-10-01T04:29:58.971Z,999.67
2016-10-01T04:30:58.946Z,999.67
2016-10-01T04:31:58.924Z,999.69
2016-10-01T04:32:58.901Z,999.71
2016-10-01T04:33:58.875Z,999.69
2016-10-01T04:34:58.850Z,999.67
2016-10-01T04:35:58.827Z,999.64
2016-10-01T04:36:58.802Z,999.67
2016-10-01T04:37:58.781Z,999.68
2016-10-01T04:38:58.762Z,999.66
2016-10-01T04:39:58.734Z,999.67
2016-10-01T04:40:58.708Z,999.74
2016-10-01T04:41:58.685Z,999.74
2016-10-01T04:42:58.661Z,999.76
2016-10-01T04:43:58.635Z,999.69
2016-10-01T04:44:58.611Z,999.65
2016-10-01T04:45:58.589Z,999.66
2016-10-01T04:46:58.563Z,999.66
2016-10-01T04:47:58.537Z,999.65
2016-10-01T04:48:58.516Z,999.68
2016-10-01T04:49:58.490Z,999.7
2016-10-01T04:50:58.468Z,999.68
2016-10-01T04:51:58.444Z,999.65
2016-10-01T04:52:58.418Z,999.67
2016-10-01T04:53:58.396Z,999.64
2016-10-01T04:54:58.371Z,999.6
2016-10-01T04:55:58.346Z,999.57
2016-10-01T04:56:58.324Z,999.51
2016-10-01T04:57:58.300Z,999.5
2016-10-01T04:58:58.275Z,999.48
2016-10-01T04:59:58.250Z,999.48
2016-10-01T05:00:58.228Z,999.53
2016-10-01T05:01:58.209Z,999.56
2016-10-01T05:02:58.179Z,999.57
2016-10-01T05:03:58.156Z,999.57
2016-10-01T05:04:58.131Z,999.54
2016-10-01T05:05:58.108Z,999.56
2016-10-01T05:06:58.083Z,999.57
2016-10-01T05:07:58.059Z,999.61
2016-10-01T05:08:58.035Z,999.56
2016-10-01T05:09:58.008Z,999.58
2016-10-01T05:10:57.987Z,999.55
2016-10-01T05:11:57.961Z,999.55
2016-10-01T05:12:57.939Z,999.55
2016-10-01T05:13:57.914Z,999.52
2016-10-01T05:14:57.888Z,999.5
2016-10-01T05:15:57.864Z,999.52
2016-10-01T05:16:57.841Z,999.5
2016-10-01T05:17:57.816Z,999.5
2016-10-01T05:18:57.794Z,999.47
2016-10-01T05:19:57.768Z,999.48
2016-10-01T05:20:57.743Z,999.55
2016-10-01T05:21:57.721Z,999.55
2016-10-01T05:22:57.746Z,999.55
2016-10-01T05:23:57.672Z,999.55
2016-10-01T05:24:57.649Z,999.58
2016-10-01T05:25:57.623Z,999.59
2016-10-01T05:26:57.601Z,999.6
2016-10-01T05:27:57.575Z,999.61
2016-10-01T05:28:57.550Z,999.6
2016-10-01T05:29:57.526Z,999.64
2016-10-01T05:30:57.502Z,999.63
2016-10-01T05:31:57.478Z,999.61
2016-10-01T05:32:57.453Z,999.61
2016-10-01T05:33:57.431Z,999.61
2016-10-01T05:34:57.407Z,999.67
2016-10-01T05:35:57.381Z,999.73
2016-10-01T05:36:57.356Z,999.74
2016-10-01T05:37:57.351Z,999.8
2016-10-01T05:38:57.311Z,999.8
2016-10-01T05:39:57.284Z,999.8
2016-10-01T05:40:57.260Z,999.75
2016-10-01T05:41:57.236Z,999.75
2016-10-01T05:42:57.213Z,999.78
2016-10-01T05:43:57.187Z,999.79
2016-10-01T05:44:57.163Z,999.84
2016-10-01T05:45:57.141Z,999.85
2016-10-01T05:46:57.116Z,999.87
2016-10-01T05:47:57.090Z,999.84
2016-10-01T05:48:57.069Z,999.84
2016-10-01T05:49:57.042Z,999.83
2016-10-01T05:50:57.020Z,999.82
2016-10-01T05:51:56.995Z,999.8
2016-10-01T05:52:56.971Z,999.76
2016-10-01T05:53:56.946Z,999.73
2016-10-01T05:54:56.920Z,999.77
2016-10-01T05:55:56.903Z,999.73
2016-10-01T05:56:56.886Z,999.73
2016-10-01T05:57:56.847Z,999.73
2016-10-01T05:58:56.825Z,999.72
2016-10-01T05:59:56.801Z,999.74
2016-10-01T06:00:56.777Z,999.68
2016-10-01T06:01:56.753Z,999.69
2016-10-01T06:02:56.742Z,999.65
2016-10-01T06:03:56.705Z,999.65
2016-10-01T06:04:56.678Z,999.69
2016-10-01T06:05:56.657Z,999.65
2016-10-01T06:06:56.632Z,999.65
2016-10-01T06:07:56.607Z,999.65
2016-10-01T06:08:56.597Z,999.62
2016-10-01T06:09:56.556Z,999.61
2016-10-01T06:10:56.533Z,999.56
2016-10-01T06:11:56.510Z,999.53
2016-10-01T06:12:56.483Z,999.52
2016-10-01T06:13:56.460Z,999.49
2016-10-01T06:14:56.438Z,999.41
2016-10-01T06:15:56.412Z,999.43
2016-10-01T06:16:56.387Z,999.42
2016-10-01T06:17:56.364Z,999.39
2016-10-01T06:18:56.340Z,999.42
2016-10-01T06:19:56.318Z,999.41
2016-10-01T06:20:56.292Z,999.48
2016-10-01T06:21:56.270Z,999.46
2016-10-01T06:22:56.245Z,999.49
2016-10-01T06:23:56.224Z,999.5
2016-10-01T06:24:56.197Z,999.53
2016-10-01T06:25:56.189Z,999.54
2016-10-01T06:26:56.157Z,999.52
2016-10-01T06:27:56.124Z,999.57
2016-10-01T06:28:56.101Z,999.53
2016-10-01T06:29:56.077Z,999.45
2016-10-01T06:30:56.052Z,999.48
2016-10-01T06:31:56.030Z,999.48
2016-10-01T06:32:56.007Z,999.48
2016-10-01T06:33:55.980Z,999.47
2016-10-01T06:34:55.959Z,999.48
2016-10-01T06:35:55.940Z,999.51
2016-10-01T06:36:55.910Z,999.47
2016-10-01T06:37:55.887Z,999.52
2016-10-01T06:38:55.860Z,999.52
2016-10-01T06:39:55.839Z,999.51
2016-10-01T06:40:55.815Z,999.52
2016-10-01T06:41:55.791Z,999.52
2016-10-01T06:42:55.767Z,999.53
2016-10-01T06:43:55.742Z,999.51
2016-10-01T06:44:55.717Z,999.51
2016-10-01T06:45:55.695Z,999.51
2016-10-01T06:46:55.672Z,999.48
2016-10-01T06:47:55.648Z,999.47
2016-10-01T06:48:55.624Z,999.44
2016-10-01T06:49:55.600Z,999.46
2016-10-01T06:50:55.575Z,999.46
2016-10-01T06:51:55.551Z,999.48
2016-10-01T06:52:55.529Z,999.48
2016-10-01T06:53:55.503Z,999.48
2016-10-01T06:54:55.482Z,999.45
2016-10-01T06:55:55.458Z,999.46
2016-10-01T06:56:55.434Z,999.42
2016-10-01T06:57:55.409Z,999.43
2016-10-01T06:58:55.388Z,999.37
2016-10-01T06:59:55.361Z,999.36
2016-10-01T07:00:55.337Z,999.35
2016-10-01T07:01:55.321Z,999.34
2016-10-01T07:02:55.293Z,999.3
2016-10-01T07:03:55.268Z,999.29
2016-10-01T07:04:55.245Z,999.26
2016-10-01T07:05:55.219Z,999.25
2016-10-01T07:06:55.197Z,999.2
2016-10-01T07:07:55.171Z,999.17
2016-10-01T07:08:55.149Z,999.16
2016-10-01T07:09:55.126Z,999.18
2016-10-01T07:10:55.104Z,999.18
2016-10-01T07:11:55.081Z,999.19
2016-10-01T07:12:55.057Z,999.18
2016-10-01T07:13:55.033Z,999.21
2016-10-01T07:14:55.009Z,999.21
2016-10-01T07:15:54.986Z,999.24
2016-10-01T07:16:54.962Z,999.18
2016-10-01T07:17:54.939Z,999.16
2016-10-01T07:18:54.916Z,999.15
2016-10-01T07:19:54.892Z,999.12
2016-10-01T07:20:54.870Z,999.1
2016-10-01T07:21:54.845Z,999.1
2016-10-01T07:22:54.826Z,999.11
2016-10-01T07:23:54.800Z,999.07
2016-10-01T07:24:54.779Z,999.09
2016-10-01T07:25:54.757Z,999.14
2016-10-01T07:26:54.739Z,999.13
2016-10-01T07:27:54.711Z,999.16
2016-10-01T07:28:54.685Z,999.14
2016-10-01T07:29:54.663Z,999.15
2016-10-01T07:30:54.643Z,999.16
2016-10-01T07:31:54.619Z,999.18
2016-10-01T07:32:54.599Z,999.17
2016-10-01T07:33:54.575Z,999.22
2016-10-01T07:34:54.552Z,999.2
2016-10-01T07:35:54.531Z,999.14
2016-10-01T07:36:54.506Z,999.17
2016-10-01T07:37:54.486Z,999.15
2016-10-01T07:38:54.465Z,999.19
2016-10-01T07:39:54.442Z,999.19
2016-10-01T07:40:54.418Z,999.21
2016-10-01T07:41:54.397Z,999.22
2016-10-01T07:42:54.373Z,999.19
2016-10-01T07:43:54.352Z,999.19
2016-10-01T07:44:54.331Z,999.16
2016-10-01T07:45:54.309Z,999.16
2016-10-01T07:46:54.285Z,999.15
2016-10-01T07:47:54.263Z,999.15
2016-10-01T07:48:54.242Z,999.14
2016-10-01T07:49:54.221Z,999.17
2016-10-01T07:50:54.200Z,999.12
2016-10-01T07:51:54.179Z,999.05
2016-10-01T07:52:54.155Z,999.05
2016-10-01T07:53:54.135Z,999.03
2016-10-01T07:54:54.115Z,998.98
2016-10-01T07:55:54.097Z,999.05
2016-10-01T07:56:54.075Z,999.02
2016-10-01T07:57:54.051Z,999.11
2016-10-01T07:58:54.032Z,999.1
2016-10-01T07:59:54.011Z,999.12
2016-10-01T08:00:53.989Z,999.09
2016-10-01T08:01:53.976Z,999.07
2016-10-01T08:02:53.948Z,999.08
2016-10-01T08:03:53.928Z,999.08
2016-10-01T08:04:53.905Z,999.03
2016-10-01T08:05:53.886Z,999.04
2016-10-01T08:06:53.863Z,999.05
2016-10-01T08:07:53.843Z,999.03
2016-10-01T08:08:53.822Z,999.01
2016-10-01T08:09:53.802Z,998.99
2016-10-01T08:10:53.780Z,998.97
2016-10-01T08:11:53.761Z,998.98
2016-10-01T08:12:53.737Z,999
2016-10-01T08:13:53.717Z,999.02
2016-10-01T08:14:53.698Z,999.03
2016-10-01T08:15:53.676Z,999.04
2016-10-01T08:16:53.653Z,999.02
2016-10-01T08:17:53.635Z,999.04
2016-10-01T08:18:53.612Z,999.03
2016-10-01T08:19:53.594Z,999.02
2016-10-01T08:20:53.572Z,999
2016-10-01T08:21:53.552Z,999
2016-10-01T08:22:53.531Z,998.99
2016-10-01T08:23:53.507Z,999.02
2016-10-01T08:24:53.488Z,999.01
2016-10-01T08:25:53.466Z,999.03
2016-10-01T08:26:53.445Z,999.05
2016-10-01T08:27:53.425Z,999.09
2016-10-01T08:28:53.402Z,999.08
2016-10-01T08:29:53.384Z,999.05
2016-10-01T08:30:53.360Z,999.03
2016-10-01T08:31:53.340Z,998.95
2016-10-01T08:32:53.319Z,998.91
2016-10-01T08:33:53.297Z,998.92
2016-10-01T08:34:53.276Z,998.93
2016-10-01T08:35:53.254Z,998.9
2016-10-01T08:36:53.247Z,998.94
2016-10-01T08:37:53.212Z,998.93
2016-10-01T08:38:53.191Z,998.98
2016-10-01T08:39:53.172Z,998.99
2016-10-01T08:40:53.149Z,999
2016-10-01T08:41:53.129Z,999.03
2016-10-01T08:42:53.106Z,999.03
2016-10-01T08:43:53.088Z,999.01
2016-10-01T08:44:53.067Z,999.01
2016-10-01T08:45:53.045Z,999.01
2016-10-01T08:46:53.021Z,999.07
2016-10-01T08:47:53.003Z,999.11
2016-10-01T08:48:52.980Z,999.16
2016-10-01T08:49:52.960Z,999.15
2016-10-01T08:50:52.937Z,999.14
2016-10-01T08:51:52.918Z,999.16
2016-10-01T08:52:52.896Z,999.14
2016-10-01T08:53:52.874Z,999.09
2016-10-01T08:54:52.851Z,999.03
2016-10-01T08:55:52.832Z,999.02
2016-10-01T08:56:52.810Z,998.98
2016-10-01T08:57:52.788Z,998.95
2016-10-01T08:58:52.766Z,998.98
2016-10-01T08:59:52.744Z,998.95
2016-10-01T09:00:52.724Z,998.93
2016-10-01T09:01:52.703Z,998.94
2016-10-01T09:02:52.681Z,998.97
2016-10-01T09:03:52.660Z,998.98
2016-10-01T09:04:52.638Z,999
2016-10-01T09:05:52.615Z,999.03
2016-10-01T09:06:52.593Z,999.01
2016-10-01T09:07:52.574Z,998.98
2016-10-01T09:08:52.551Z,998.97
2016-10-01T09:09:52.531Z,998.98
2016-10-01T09:10:52.509Z,998.93
2016-10-01T09:11:52.488Z,998.94
2016-10-01T09:12:52.464Z,998.94
2016-10-01T09:13:52.450Z,998.94
2016-10-01T09:14:52.424Z,998.86
2016-10-01T09:15:52.402Z,998.87
2016-10-01T09:16:52.380Z,998.84
2016-10-01T09:17:52.358Z,998.81
2016-10-01T09:18:52.338Z,998.84
2016-10-01T09:19:52.316Z,998.83
2016-10-01T09:20:52.293Z,998.81
2016-10-01T09:21:52.271Z,998.84
2016-10-01T09:22:52.251Z,998.79
2016-10-01T09:23:52.231Z,998.77
2016-10-01T09:24:52.209Z,998.76
2016-10-01T09:25:52.188Z,998.73
2016-10-01T09:26:52.167Z,998.72
2016-10-01T09:27:52.146Z,998.65
2016-10-01T09:28:52.125Z,998.62
2016-10-01T09:29:52.101Z,998.63
2016-10-01T09:30:52.080Z,998.64
2016-10-01T09:31:52.059Z,998.64
2016-10-01T09:32:52.038Z,998.65
2016-10-01T09:33:52.018Z,998.69
2016-10-01T09:34:52.002Z,998.7
2016-10-01T09:35:51.974Z,998.71
2016-10-01T09:36:51.955Z,998.72
2016-10-01T09:37:51.932Z,998.7
2016-10-01T09:38:51.911Z,998.73
2016-10-01T09:39:51.891Z,998.74
2016-10-01T09:40:51.870Z,998.76
2016-10-01T09:41:51.850Z,998.7
2016-10-01T09:42:51.835Z,998.71
2016-10-01T09:43:51.808Z,998.69
2016-10-01T09:44:51.787Z,998.71
2016-10-01T09:45:51.780Z,998.73
2016-10-01T09:46:51.746Z,998.67
2016-10-01T09:47:51.722Z,998.7
2016-10-01T09:48:51.702Z,998.72
2016-10-01T09:49:51.683Z,998.66
2016-10-01T09:50:51.663Z,998.72
2016-10-01T09:51:51.639Z,998.71
2016-10-01T09:52:51.621Z,998.7
2016-10-01T09:53:51.599Z,998.71
2016-10-01T09:54:51.577Z,998.67
2016-10-01T09:55:51.557Z,998.69
2016-10-01T09:56:51.537Z,998.64
2016-10-01T09:57:51.516Z,998.62
2016-10-01T09:58:51.499Z,998.63
2016-10-01T09:59:51.475Z,998.57
2016-10-01T10:00:51.454Z,998.57
2016-10-01T10:01:51.435Z,998.68
2016-10-01T10:02:51.415Z,998.66
2016-10-01T10:03:51.395Z,998.64
2016-10-01T10:04:51.375Z,998.64
2016-10-01T10:05:51.354Z,998.62
2016-10-01T10:06:51.334Z,998.62
2016-10-01T10:07:51.313Z,998.61
2016-10-01T10:08:51.291Z,998.62
2016-10-01T10:09:51.272Z,998.64
2016-10-01T10:10:51.250Z,998.66
2016-10-01T10:11:51.231Z,998.62
2016-10-01T10:12:51.210Z,998.62
2016-10-01T10:13:51.188Z,998.63
2016-10-01T10:14:51.171Z,998.64
2016-10-01T10:15:51.151Z,998.63
2016-10-01T10:16:51.128Z,998.66
2016-10-01T10:17:51.110Z,998.68
2016-10-01T10:18:51.091Z,998.67
2016-10-01T10:19:51.071Z,998.67
2016-10-01T10:20:51.048Z,998.65
2016-10-01T10:21:51.029Z,998.63
2016-10-01T10:22:51.009Z,998.61
2016-10-01T10:23:50.991Z,998.56
2016-10-01T10:24:50.970Z,998.54
2016-10-01T10:25:50.954Z,998.57
2016-10-01T10:26:50.934Z,998.5
2016-10-01T10:27:50.912Z,998.54
2016-10-01T10:28:50.893Z,998.54
2016-10-01T10:29:50.876Z,998.56
2016-10-01T10:30:50.856Z,998.55
2016-10-01T10:31:50.836Z,998.53
2016-10-01T10:32:50.818Z,998.52
2016-10-01T10:33:50.801Z,998.55
2016-10-01T10:34:50.782Z,998.54
2016-10-01T10:35:50.762Z,998.55
2016-10-01T10:36:50.745Z,998.57
2016-10-01T10:37:50.727Z,998.6
2016-10-01T10:38:50.707Z,998.61
2016-10-01T10:39:50.690Z,998.59
2016-10-01T10:40:50.671Z,998.59
2016-10-01T10:41:50.652Z,998.6
2016-10-01T10:42:50.638Z,998.65
2016-10-01T10:43:50.616Z,998.65
2016-10-01T10:44:50.598Z,998.65
2016-10-01T10:45:50.578Z,998.62
2016-10-01T10:46:50.559Z,998.56
2016-10-01T10:47:50.543Z,998.55
2016-10-01T10:48:50.526Z,998.5
2016-10-01T10:49:50.508Z,998.48
2016-10-01T10:50:50.489Z,998.48
2016-10-01T10:51:50.469Z,998.48
2016-10-01T10:52:50.455Z,998.47
2016-10-01T10:53:50.434Z,998.46
2016-10-01T10:54:50.415Z,998.42
2016-10-01T10:55:50.396Z,998.38
2016-10-01T10:56:50.380Z,998.39
2016-10-01T10:57:50.360Z,998.33
2016-10-01T10:58:50.341Z,998.36
2016-10-01T10:59:50.325Z,998.32
2016-10-01T11:00:50.305Z,998.34
2016-10-01T11:01:50.287Z,998.37
2016-10-01T11:02:50.270Z,998.38
2016-10-01T11:03:50.255Z,998.41
2016-10-01T11:04:50.234Z,998.41
2016-10-01T11:05:50.219Z,998.4
2016-10-01T11:06:50.202Z,998.38
2016-10-01T11:07:50.182Z,998.36
2016-10-01T11:08:50.174Z,998.33
2016-10-01T11:09:50.147Z,998.33
2016-10-01T11:10:50.130Z,998.36
2016-10-01T11:11:50.116Z,998.35
2016-10-01T11:12:50.097Z,998.31
2016-10-01T11:13:50.081Z,998.25
2016-10-01T11:14:50.063Z,998.2
2016-10-01T11:15:50.044Z,998.26
2016-10-01T11:16:50.029Z,998.24
2016-10-01T11:17:50.010Z,998.18
2016-10-01T11:18:49.995Z,998.19
2016-10-01T11:19:49.978Z,998.19
2016-10-01T11:20:49.961Z,998.19
2016-10-01T11:21:49.943Z,998.17
2016-10-01T11:22:49.927Z,998.21
2016-10-01T11:23:49.908Z,998.17
2016-10-01T11:24:49.892Z,998.2
2016-10-01T11:25:49.876Z,998.16
2016-10-01T11:26:49.859Z,998.13
2016-10-01T11:27:49.844Z,998.13
2016-10-01T11:28:49.826Z,998.15
2016-10-01T11:29:49.810Z,998.14
2016-10-01T11:30:49.794Z,998.14
2016-10-01T11:31:49.776Z,998.12
2016-10-01T11:32:49.761Z,998.13
2016-10-01T11:33:49.741Z,998.07
2016-10-01T11:34:49.725Z,998.07
2016-10-01T11:35:49.711Z,998.05
2016-10-01T11:36:49.692Z,998
2016-10-01T11:37:49.675Z,997.95
2016-10-01T11:38:49.658Z,997.9
2016-10-01T11:39:49.642Z,997.9
2016-10-01T11:40:49.625Z,997.86
2016-10-01T11:41:49.611Z,997.83
2016-10-01T11:42:49.593Z,997.81
2016-10-01T11:43:49.577Z,997.79
2016-10-01T11:44:49.562Z,997.79
2016-10-01T11:45:49.546Z,997.73
2016-10-01T11:46:49.529Z,997.8
2016-10-01T11:47:49.513Z,997.78
2016-10-01T11:48:49.496Z,997.79
2016-10-01T11:49:49.483Z,997.73
2016-10-01T11:50:49.465Z,997.7
2016-10-01T11:51:49.450Z,997.69
2016-10-01T11:52:49.434Z,997.65
2016-10-01T11:53:49.419Z,997.64
2016-10-01T11:54:49.403Z,997.65
2016-10-01T11:55:49.384Z,997.67
2016-10-01T11:56:49.371Z,997.68
2016-10-01T11:57:49.355Z,997.73
2016-10-01T11:58:49.337Z,997.72
2016-10-01T11:59:49.322Z,997.68
2016-10-01T12:00:49.305Z,997.69
2016-10-01T12:01:49.291Z,997.62
2016-10-01T12:02:49.272Z,997.62
2016-10-01T12:03:49.258Z,997.61
2016-10-01T12:04:49.242Z,997.62
2016-10-01T12:05:49.226Z,997.62
2016-10-01T12:06:49.210Z,997.66
2016-10-01T12:07:49.194Z,997.66
2016-10-01T12:08:49.176Z,997.63
2016-10-01T12:09:49.161Z,997.62
2016-10-01T12:10:49.143Z,997.62
2016-10-01T12:11:49.129Z,997.6
2016-10-01T12:12:49.112Z,997.56
2016-10-01T12:13:49.098Z,997.57
2016-10-01T12:14:49.079Z,997.54
2016-10-01T12:15:49.064Z,997.54
2016-10-01T12:16:49.051Z,997.52
2016-10-01T12:17:49.032Z,997.57
2016-10-01T12:18:49.017Z,997.54
2016-10-01T12:19:49.003Z,997.53
2016-10-01T12:20:48.989Z,997.54
2016-10-01T12:21:48.971Z,997.49
2016-10-01T12:22:48.959Z,997.48